sensor_id;sensor_type;location;lat;lon;timestamp;pressure;altitude;pressure_sealevel;temperature;humidity
20628;BME280;10473;42.734;24.258;2022-07-23T00:02:12;92285.03;;;21.56;43.12
20628;BME280;10473;42.734;24.258;2022-07-23T00:04:39;92294.81;;;21.66;43.28
20628;BME280;10473;42.734;24.258;2022-07-23T00:07:07;92286.53;;;21.57;43.30
20628;BME280;10473;42.734;24.258;2022-07-23T00:09:36;92287.53;;;21.63;43.04
20628;BME280;10473;42.734;24.258;2022-07-23T00:12:04;92293.03;;;21.59;43.15
20628;BME280;10473;42.734;24.258;2022-07-23T00:14:32;92287.91;;;21.49;43.23
20628;BME280;10473;42.734;24.258;2022-07-23T00:17:00;92301.06;;;21.47;43.32
20628;BME280;10473;42.734;24.258;2022-07-23T00:19:28;92293.28;;;21.49;43.28
20628;BME280;10473;42.734;24.258;2022-07-23T00:21:56;92286.47;;;21.44;43.57
20628;BME280;10473;42.734;24.258;2022-07-23T00:24:23;92292.06;;;21.37;43.81
20628;BME280;10473;42.734;24.258;2022-07-23T00:26:52;92288.41;;;21.28;43.66
20628;BME280;10473;42.734;24.258;2022-07-23T00:29:20;92289.44;;;21.18;43.97
20628;BME280;10473;42.734;24.258;2022-07-23T00:31:48;92292.97;;;21.15;44.02
20628;BME280;10473;42.734;24.258;2022-07-23T00:34:16;92283.44;;;21.10;44.09
20628;BME280;10473;42.734;24.258;2022-07-23T00:36:44;92292.81;;;21.06;44.13
20628;BME280;10473;42.734;24.258;2022-07-23T00:39:12;92289.66;;;21.07;44.54
20628;BME280;10473;42.734;24.258;2022-07-23T00:41:39;92285.63;;;20.99;44.24
20628;BME280;10473;42.734;24.258;2022-07-23T00:44:20;92285.97;;;21.01;44.54
20628;BME280;10473;42.734;24.258;2022-07-23T00:46:50;92282.53;;;20.81;44.54
20628;BME280;10473;42.734;24.258;2022-07-23T00:49:20;92292.09;;;20.31;45.79
20628;BME280;10473;42.734;24.258;2022-07-23T00:51:49;92287.25;;;20.42;46.40
20628;BME280;10473;42.734;24.258;2022-07-23T00:54:17;92285.44;;;20.55;46.25
20628;BME280;10473;42.734;24.258;2022-07-23T00:56:46;92280.66;;;20.62;45.76
20628;BME280;10473;42.734;24.258;2022-07-23T00:59:14;92279.06;;;20.65;46.04
20628;BME280;10473;42.734;24.258;2022-07-23T01:01:43;92281.25;;;20.70;45.74
20628;BME280;10473;42.734;24.258;2022-07-23T01:04:14;92275.88;;;20.70;46.29
20628;BME280;10473;42.734;24.258;2022-07-23T01:06:43;92282.03;;;20.70;46.20
20628;BME280;10473;42.734;24.258;2022-07-23T01:09:11;92273.94;;;20.70;46.02
20628;BME280;10473;42.734;24.258;2022-07-23T01:11:40;92284.81;;;20.47;45.73
20628;BME280;10473;42.734;24.258;2022-07-23T01:14:11;92281.88;;;20.42;46.22
20628;BME280;10473;42.734;24.258;2022-07-23T01:16:39;92269.72;;;20.53;46.67
20628;BME280;10473;42.734;24.258;2022-07-23T01:19:08;92283.78;;;20.61;46.86
20628;BME280;10473;42.734;24.258;2022-07-23T01:21:38;92280.59;;;20.66;46.69
20628;BME280;10473;42.734;24.258;2022-07-23T01:24:09;92271.41;;;20.63;46.68
20628;BME280;10473;42.734;24.258;2022-07-23T01:26:42;92269.75;;;20.69;46.52
20628;BME280;10473;42.734;24.258;2022-07-23T01:29:11;92266.44;;;20.62;46.67
20628;BME280;10473;42.734;24.258;2022-07-23T01:31:39;92270.31;;;20.61;46.55
20628;BME280;10473;42.734;24.258;2022-07-23T01:34:07;92267.63;;;20.61;46.61
20628;BME280;10473;42.734;24.258;2022-07-23T01:36:36;92260.38;;;20.58;46.59
20628;BME280;10473;42.734;24.258;2022-07-23T01:39:06;92262.28;;;20.57;46.72
20628;BME280;10473;42.734;24.258;2022-07-23T01:41:35;92254.66;;;20.56;46.26
20628;BME280;10473;42.734;24.258;2022-07-23T01:44:03;92250.78;;;20.57;45.76
20628;BME280;10473;42.734;24.258;2022-07-23T01:46:31;92251.47;;;20.61;46.20
20628;BME280;10473;42.734;24.258;2022-07-23T01:49:24;92261.88;;;20.59;46.19
20628;BME280;10473;42.734;24.258;2022-07-23T01:52:00;92249.78;;;20.51;46.29
20628;BME280;10473;42.734;24.258;2022-07-23T01:54:40;92252.47;;;20.51;46.15
20628;BME280;10473;42.734;24.258;2022-07-23T01:57:10;92257.00;;;20.54;46.41
20628;BME280;10473;42.734;24.258;2022-07-23T01:59:37;92257.00;;;20.54;46.48
20628;BME280;10473;42.734;24.258;2022-07-23T02:02:06;92249.41;;;20.49;46.48
20628;BME280;10473;42.734;24.258;2022-07-23T02:04:34;92251.69;;;20.50;46.37
20628;BME280;10473;42.734;24.258;2022-07-23T02:07:03;92252.38;;;20.54;46.61
20628;BME280;10473;42.734;24.258;2022-07-23T02:09:31;92254.31;;;20.54;46.21
20628;BME280;10473;42.734;24.258;2022-07-23T02:11:59;92255.97;;;20.48;46.72
20628;BME280;10473;42.734;24.258;2022-07-23T02:14:29;92256.31;;;20.50;47.05
20628;BME280;10473;42.734;24.258;2022-07-23T02:16:56;92257.41;;;20.52;46.84
20628;BME280;10473;42.734;24.258;2022-07-23T02:19:24;92256.31;;;20.50;47.02
20628;BME280;10473;42.734;24.258;2022-07-23T02:21:52;92254.19;;;20.41;47.35
20628;BME280;10473;42.734;24.258;2022-07-23T02:24:21;92262.84;;;20.33;47.80
20628;BME280;10473;42.734;24.258;2022-07-23T02:26:49;92262.22;;;20.25;47.64
20628;BME280;10473;42.734;24.258;2022-07-23T02:29:16;92260.09;;;20.17;47.55
20628;BME280;10473;42.734;24.258;2022-07-23T02:31:45;92254.03;;;20.13;47.61
20628;BME280;10473;42.734;24.258;2022-07-23T02:34:13;92263.03;;;20.03;48.16
20628;BME280;10473;42.734;24.258;2022-07-23T02:36:41;92259.72;;;19.95;47.97
20628;BME280;10473;42.734;24.258;2022-07-23T02:39:09;92258.53;;;19.96;48.42
20628;BME280;10473;42.734;24.258;2022-07-23T02:41:38;92257.13;;;19.92;48.20
20628;BME280;10473;42.734;24.258;2022-07-23T02:44:05;92259.44;;;19.90;48.10
20628;BME280;10473;42.734;24.258;2022-07-23T02:46:33;92258.22;;;19.94;48.10
20628;BME280;10473;42.734;24.258;2022-07-23T02:49:03;92265.84;;;19.96;48.34
20628;BME280;10473;42.734;24.258;2022-07-23T02:51:31;92255.94;;;19.93;48.36
20628;BME280;10473;42.734;24.258;2022-07-23T02:54:03;92267.03;;;19.95;48.38
20628;BME280;10473;42.734;24.258;2022-07-23T02:56:31;92270.56;;;19.92;48.35
20628;BME280;10473;42.734;24.258;2022-07-23T02:58:58;92260.91;;;19.94;48.41
20628;BME280;10473;42.734;24.258;2022-07-23T03:01:26;92260.28;;;19.87;48.52
20628;BME280;10473;42.734;24.258;2022-07-23T03:03:54;92262.13;;;19.90;48.59
20628;BME280;10473;42.734;24.258;2022-07-23T03:06:23;92264.34;;;19.95;48.65
20628;BME280;10473;42.734;24.258;2022-07-23T03:08:51;92268.06;;;20.01;48.79
20628;BME280;10473;42.734;24.258;2022-07-23T03:11:19;92271.94;;;20.00;48.76
20628;BME280;10473;42.734;24.258;2022-07-23T03:13:48;92275.03;;;19.98;49.26
20628;BME280;10473;42.734;24.258;2022-07-23T03:16:16;92271.50;;;20.01;48.90
20628;BME280;10473;42.734;24.258;2022-07-23T03:18:44;92274.63;;;20.00;48.86
20628;BME280;10473;42.734;24.258;2022-07-23T03:21:11;92279.44;;;19.89;49.00
20628;BME280;10473;42.734;24.258;2022-07-23T03:23:40;92283.94;;;19.95;49.67
20628;BME280;10473;42.734;24.258;2022-07-23T03:26:08;92285.94;;;19.91;49.73
20628;BME280;10473;42.734;24.258;2022-07-23T03:28:36;92291.84;;;19.83;49.94
20628;BME280;10473;42.734;24.258;2022-07-23T03:31:05;92282.06;;;19.92;50.09
20628;BME280;10473;42.734;24.258;2022-07-23T03:33:33;92280.47;;;19.95;49.88
20628;BME280;10473;42.734;24.258;2022-07-23T03:36:01;92285.13;;;19.94;50.21
20628;BME280;10473;42.734;24.258;2022-07-23T03:38:32;92271.38;;;19.89;50.21
20628;BME280;10473;42.734;24.258;2022-07-23T03:41:01;92289.50;;;19.85;50.60
20628;BME280;10473;42.734;24.258;2022-07-23T03:43:28;92282.06;;;19.92;50.81
20628;BME280;10473;42.734;24.258;2022-07-23T03:45:56;92292.63;;;20.03;51.09
20628;BME280;10473;42.734;24.258;2022-07-23T03:48:24;92286.72;;;20.11;50.50
20628;BME280;10473;42.734;24.258;2022-07-23T03:50:52;92286.16;;;20.20;50.87
20628;BME280;10473;42.734;24.258;2022-07-23T03:53:22;92276.16;;;20.20;51.61
20628;BME280;10473;42.734;24.258;2022-07-23T03:55:50;92275.06;;;20.18;51.60
20628;BME280;10473;42.734;24.258;2022-07-23T03:58:19;92281.47;;;20.24;51.54
20628;BME280;10473;42.734;24.258;2022-07-23T04:00:47;92286.09;;;20.23;51.45
20628;BME280;10473;42.734;24.258;2022-07-23T04:03:15;92288.38;;;20.25;51.29
20628;BME280;10473;42.734;24.258;2022-07-23T04:05:43;92282.16;;;20.28;51.81
20628;BME280;10473;42.734;24.258;2022-07-23T04:08:13;92289.59;;;20.40;52.20
20628;BME280;10473;42.734;24.258;2022-07-23T04:10:45;92275.34;;;20.59;52.05
20628;BME280;10473;42.734;24.258;2022-07-23T04:13:13;92285.00;;;20.76;51.79
20628;BME280;10473;42.734;24.258;2022-07-23T04:15:42;92282.16;;;20.99;51.73
20628;BME280;10473;42.734;24.258;2022-07-23T04:18:10;92279.31;;;21.22;51.89
20628;BME280;10473;42.734;24.258;2022-07-23T04:20:45;92285.56;;;21.51;52.82
20628;BME280;10473;42.734;24.258;2022-07-23T04:23:13;92285.63;;;21.79;53.55
20628;BME280;10473;42.734;24.258;2022-07-23T04:25:41;92285.53;;;22.11;51.30
20628;BME280;10473;42.734;24.258;2022-07-23T04:28:09;92284.59;;;22.46;50.18
20628;BME280;10473;42.734;24.258;2022-07-23T04:30:37;92286.78;;;22.76;52.36
20628;BME280;10473;42.734;24.258;2022-07-23T04:33:07;92291.13;;;23.11;50.42
20628;BME280;10473;42.734;24.258;2022-07-23T04:35:37;92299.34;;;23.45;49.54
20628;BME280;10473;42.734;24.258;2022-07-23T04:38:12;92295.91;;;23.79;51.86
20628;BME280;10473;42.734;24.258;2022-07-23T04:40:41;92298.78;;;24.09;50.92
20628;BME280;10473;42.734;24.258;2022-07-23T04:43:08;92309.88;;;24.45;48.32
20628;BME280;10473;42.734;24.258;2022-07-23T04:45:43;92303.19;;;24.80;47.51
20628;BME280;10473;42.734;24.258;2022-07-23T04:48:12;92300.50;;;25.11;49.38
20628;BME280;10473;42.734;24.258;2022-07-23T04:50:40;92305.78;;;25.45;46.04
20628;BME280;10473;42.734;24.258;2022-07-23T04:53:15;92305.56;;;25.79;46.92
20628;BME280;10473;42.734;24.258;2022-07-23T04:55:44;92297.31;;;26.10;44.52
20628;BME280;10473;42.734;24.258;2022-07-23T04:58:12;92303.84;;;26.39;42.09
20628;BME280;10473;42.734;24.258;2022-07-23T05:00:40;92311.09;;;26.69;46.40
20628;BME280;10473;42.734;24.258;2022-07-23T05:03:07;92300.16;;;26.96;42.57
20628;BME280;10473;42.734;24.258;2022-07-23T05:05:37;92309.19;;;27.11;43.81
20628;BME280;10473;42.734;24.258;2022-07-23T05:08:11;92300.16;;;27.38;42.24
20628;BME280;10473;42.734;24.258;2022-07-23T05:10:40;92301.56;;;27.66;44.61
20628;BME280;10473;42.734;24.258;2022-07-23T05:13:08;92303.00;;;27.85;42.29
20628;BME280;10473;42.734;24.258;2022-07-23T05:15:36;92308.44;;;28.08;42.96
20628;BME280;10473;42.734;24.258;2022-07-23T05:18:03;92300.56;;;27.54;43.29
20628;BME280;10473;42.734;24.258;2022-07-23T05:20:32;92306.72;;;27.64;44.59
20628;BME280;10473;42.734;24.258;2022-07-23T05:23:01;92302.72;;;28.06;45.68
20628;BME280;10473;42.734;24.258;2022-07-23T05:25:31;92306.13;;;28.16;46.02
20628;BME280;10473;42.734;24.258;2022-07-23T05:27:59;92306.16;;;28.39;46.88
20628;BME280;10473;42.734;24.258;2022-07-23T05:30:26;92299.03;;;28.56;45.02
20628;BME280;10473;42.734;24.258;2022-07-23T05:32:59;92307.50;;;28.87;42.69
20628;BME280;10473;42.734;24.258;2022-07-23T05:35:27;92305.91;;;28.66;42.03
20628;BME280;10473;42.734;24.258;2022-07-23T05:38:14;92306.66;;;28.81;44.34
20628;BME280;10473;42.734;24.258;2022-07-23T05:40:42;92312.25;;;29.01;45.95
20628;BME280;10473;42.734;24.258;2022-07-23T05:43:10;92317.16;;;29.12;42.54
20628;BME280;10473;42.734;24.258;2022-07-23T05:45:38;92313.25;;;28.13;44.26
20628;BME280;10473;42.734;24.258;2022-07-23T05:48:05;92312.47;;;28.45;43.09
20628;BME280;10473;42.734;24.258;2022-07-23T05:50:41;92322.34;;;28.57;42.87
20628;BME280;10473;42.734;24.258;2022-07-23T05:53:22;92322.19;;;28.75;43.83
20628;BME280;10473;42.734;24.258;2022-07-23T05:56:10;92321.25;;;28.78;41.55
20628;BME280;10473;42.734;24.258;2022-07-23T05:58:38;92322.31;;;28.81;42.13
20628;BME280;10473;42.734;24.258;2022-07-23T06:01:07;92322.59;;;28.97;43.05
20628;BME280;10473;42.734;24.258;2022-07-23T06:03:50;92329.38;;;29.45;44.68
20628;BME280;10473;42.734;24.258;2022-07-23T06:06:18;92324.09;;;29.71;40.37
20628;BME280;10473;42.734;24.258;2022-07-23T06:08:47;92317.78;;;29.99;42.00
20628;BME280;10473;42.734;24.258;2022-07-23T06:11:15;92321.25;;;29.80;36.98
20628;BME280;10473;42.734;24.258;2022-07-23T06:13:43;92313.13;;;29.85;36.96
20628;BME280;10473;42.734;24.258;2022-07-23T06:16:11;92319.75;;;30.13;38.49
20628;BME280;10473;42.734;24.258;2022-07-23T06:18:39;92318.25;;;30.52;41.18
20628;BME280;10473;42.734;24.258;2022-07-23T06:21:07;92307.31;;;30.52;36.43
20628;BME280;10473;42.734;24.258;2022-07-23T06:23:35;92309.59;;;30.79;38.94
20628;BME280;10473;42.734;24.258;2022-07-23T06:26:04;92322.47;;;30.73;35.84
20628;BME280;10473;42.734;24.258;2022-07-23T06:28:32;92309.22;;;30.66;39.39
20628;BME280;10473;42.734;24.258;2022-07-23T06:30:59;92309.84;;;31.01;35.97
20628;BME280;10473;42.734;24.258;2022-07-23T06:33:28;92309.03;;;30.95;34.42
20628;BME280;10473;42.734;24.258;2022-07-23T06:35:55;92302.22;;;30.45;35.78
20628;BME280;10473;42.734;24.258;2022-07-23T06:38:23;92307.53;;;30.29;33.90
20628;BME280;10473;42.734;24.258;2022-07-23T06:40:51;92305.59;;;30.75;34.93
20628;BME280;10473;42.734;24.258;2022-07-23T06:43:20;92312.69;;;31.12;33.25
20628;BME280;10473;42.734;24.258;2022-07-23T06:45:53;92302.47;;;31.13;34.39
20628;BME280;10473;42.734;24.258;2022-07-23T06:48:21;92306.13;;;31.04;31.52
20628;BME280;10473;42.734;24.258;2022-07-23T06:50:50;92311.81;;;31.01;33.84
20628;BME280;10473;42.734;24.258;2022-07-23T06:53:23;92311.50;;;31.44;33.87
20628;BME280;10473;42.734;24.258;2022-07-23T06:55:51;92301.78;;;31.74;31.88
20628;BME280;10473;42.734;24.258;2022-07-23T06:58:20;92301.84;;;31.85;31.02
20628;BME280;10473;42.734;24.258;2022-07-23T07:00:48;92313.69;;;32.08;33.08
20628;BME280;10473;42.734;24.258;2022-07-23T07:03:16;92303.09;;;32.26;32.30
20628;BME280;10473;42.734;24.258;2022-07-23T07:05:44;92311.44;;;32.48;35.35
20628;BME280;10473;42.734;24.258;2022-07-23T07:08:12;92315.97;;;32.62;32.61
20628;BME280;10473;42.734;24.258;2022-07-23T07:10:39;92314.00;;;32.68;30.61
20628;BME280;10473;42.734;24.258;2022-07-23T07:13:07;92313.72;;;32.66;30.00
20628;BME280;10473;42.734;24.258;2022-07-23T07:15:36;92309.75;;;32.67;30.13
20628;BME280;10473;42.734;24.258;2022-07-23T07:18:04;92309.34;;;31.90;30.30
20628;BME280;10473;42.734;24.258;2022-07-23T07:20:31;92298.63;;;31.87;31.60
20628;BME280;10473;42.734;24.258;2022-07-23T07:22:59;92305.50;;;32.13;33.24
20628;BME280;10473;42.734;24.258;2022-07-23T07:25:27;92305.56;;;32.24;31.17
20628;BME280;10473;42.734;24.258;2022-07-23T07:27:55;92301.34;;;32.29;31.40
20628;BME280;10473;42.734;24.258;2022-07-23T07:30:23;92311.50;;;32.17;30.84
20628;BME280;10473;42.734;24.258;2022-07-23T07:32:52;92308.50;;;32.15;30.85
20628;BME280;10473;42.734;24.258;2022-07-23T07:35:19;92307.88;;;32.37;31.28
20628;BME280;10473;42.734;24.258;2022-07-23T07:37:47;92308.84;;;32.28;31.89
20628;BME280;10473;42.734;24.258;2022-07-23T07:40:15;92308.72;;;32.59;30.23
20628;BME280;10473;42.734;24.258;2022-07-23T07:42:46;92310.97;;;32.66;32.45
20628;BME280;10473;42.734;24.258;2022-07-23T07:45:13;92303.78;;;32.74;29.83
20628;BME280;10473;42.734;24.258;2022-07-23T07:47:41;92293.88;;;32.93;31.30
20628;BME280;10473;42.734;24.258;2022-07-23T07:50:10;92301.19;;;32.43;29.32
20628;BME280;10473;42.734;24.258;2022-07-23T07:52:39;92290.59;;;32.25;30.72
20628;BME280;10473;42.734;24.258;2022-07-23T07:55:08;92286.22;;;32.50;29.96
20628;BME280;10473;42.734;24.258;2022-07-23T07:57:36;92289.94;;;32.41;32.19
20628;BME280;10473;42.734;24.258;2022-07-23T08:00:06;92291.22;;;32.51;29.90
20628;BME280;10473;42.734;24.258;2022-07-23T08:02:44;92281.81;;;32.74;30.39
20628;BME280;10473;42.734;24.258;2022-07-23T08:05:14;92293.88;;;32.93;29.89
20628;BME280;10473;42.734;24.258;2022-07-23T08:07:41;92291.88;;;32.99;28.72
20628;BME280;10473;42.734;24.258;2022-07-23T08:10:09;92288.88;;;33.03;32.23
20628;BME280;10473;42.734;24.258;2022-07-23T08:12:39;92275.19;;;33.19;30.06
20628;BME280;10473;42.734;24.258;2022-07-23T08:15:08;92283.97;;;33.29;30.22
20628;BME280;10473;42.734;24.258;2022-07-23T08:17:36;92289.47;;;33.40;32.10
20628;BME280;10473;42.734;24.258;2022-07-23T08:20:05;92282.16;;;33.09;29.53
20628;BME280;10473;42.734;24.258;2022-07-23T08:22:46;92289.44;;;33.34;29.66
20628;BME280;10473;42.734;24.258;2022-07-23T08:25:15;92284.22;;;33.47;31.16
20628;BME280;10473;42.734;24.258;2022-07-23T08:27:43;92275.97;;;33.47;30.77
20628;BME280;10473;42.734;24.258;2022-07-23T08:30:10;92283.94;;;33.45;30.18
20628;BME280;10473;42.734;24.258;2022-07-23T08:32:52;92278.88;;;32.89;30.81
20628;BME280;10473;42.734;24.258;2022-07-23T08:35:25;92281.00;;;32.52;31.96
20628;BME280;10473;42.734;24.258;2022-07-23T08:37:55;92279.13;;;32.80;30.27
20628;BME280;10473;42.734;24.258;2022-07-23T08:40:23;92275.84;;;32.81;32.17
20628;BME280;10473;42.734;24.258;2022-07-23T08:42:51;92278.88;;;32.83;29.93
20628;BME280;10473;42.734;24.258;2022-07-23T08:45:20;92283.13;;;32.90;31.60
20628;BME280;10473;42.734;24.258;2022-07-23T08:47:50;92274.63;;;32.88;31.73
20628;BME280;10473;42.734;24.258;2022-07-23T08:50:19;92275.63;;;32.90;30.88
20628;BME280;10473;42.734;24.258;2022-07-23T08:52:49;92270.88;;;32.85;31.12
20628;BME280;10473;42.734;24.258;2022-07-23T08:55:19;92280.91;;;32.99;31.89
20628;BME280;10473;42.734;24.258;2022-07-23T08:57:49;92274.13;;;32.25;30.23
20628;BME280;10473;42.734;24.258;2022-07-23T09:00:18;92284.03;;;32.59;30.37
20628;BME280;10473;42.734;24.258;2022-07-23T09:02:46;92288.63;;;32.90;30.72
20628;BME280;10473;42.734;24.258;2022-07-23T09:05:15;92281.41;;;33.03;30.14
20628;BME280;10473;42.734;24.258;2022-07-23T09:08:09;92286.91;;;33.25;31.32
20628;BME280;10473;42.734;24.258;2022-07-23T09:10:52;92283.69;;;33.38;29.95
20628;BME280;10473;42.734;24.258;2022-07-23T09:13:30;92284.97;;;33.53;30.91
20628;BME280;10473;42.734;24.258;2022-07-23T09:16:00;92279.22;;;33.62;28.97
20628;BME280;10473;42.734;24.258;2022-07-23T09:18:29;92267.72;;;33.64;29.68
20628;BME280;10473;42.734;24.258;2022-07-23T09:21:22;92268.69;;;33.72;28.65
20628;BME280;10473;42.734;24.258;2022-07-23T09:23:53;92270.19;;;33.12;28.42
20628;BME280;10473;42.734;24.258;2022-07-23T09:26:32;92268.41;;;32.98;30.12
20628;BME280;10473;42.734;24.258;2022-07-23T09:29:04;92264.97;;;33.36;30.10
20628;BME280;10473;42.734;24.258;2022-07-23T09:31:34;92268.22;;;33.29;26.51
20628;BME280;10473;42.734;24.258;2022-07-23T09:34:11;92256.97;;;33.44;27.95
20628;BME280;10473;42.734;24.258;2022-07-23T09:36:40;92261.22;;;33.56;28.11
20628;BME280;10473;42.734;24.258;2022-07-23T09:39:08;92257.97;;;33.57;28.57
20628;BME280;10473;42.734;24.258;2022-07-23T09:41:39;92251.72;;;33.51;27.90
20628;BME280;10473;42.734;24.258;2022-07-23T09:44:18;92246.72;;;33.66;27.98
20628;BME280;10473;42.734;24.258;2022-07-23T09:46:48;92266.44;;;33.92;26.51
20628;BME280;10473;42.734;24.258;2022-07-23T09:49:18;92246.88;;;34.12;28.66
20628;BME280;10473;42.734;24.258;2022-07-23T09:51:48;92243.34;;;34.28;27.60
20628;BME280;10473;42.734;24.258;2022-07-23T09:54:27;92254.13;;;34.10;27.13
20628;BME280;10473;42.734;24.258;2022-07-23T09:57:00;92250.66;;;33.98;26.51
20628;BME280;10473;42.734;24.258;2022-07-23T09:59:31;92239.72;;;33.60;26.08
20628;BME280;10473;42.734;24.258;2022-07-23T10:02:00;92252.22;;;33.50;27.54
20628;BME280;10473;42.734;24.258;2022-07-23T10:04:33;92251.44;;;33.71;25.94
20628;BME280;10473;42.734;24.258;2022-07-23T10:07:13;92244.13;;;34.07;26.04
20628;BME280;10473;42.734;24.258;2022-07-23T10:10:04;92235.91;;;34.01;26.18
20628;BME280;10473;42.734;24.258;2022-07-23T10:12:56;92232.44;;;33.95;24.76
20628;BME280;10473;42.734;24.258;2022-07-23T10:15:42;92246.19;;;33.90;25.73
20628;BME280;10473;42.734;24.258;2022-07-23T10:18:10;92232.34;;;34.12;26.15
20628;BME280;10473;42.734;24.258;2022-07-23T10:20:39;92238.25;;;34.43;25.23
20628;BME280;10473;42.734;24.258;2022-07-23T10:23:14;92225.97;;;34.50;24.66
20628;BME280;10473;42.734;24.258;2022-07-23T10:25:51;92231.75;;;34.46;24.87
20628;BME280;10473;42.734;24.258;2022-07-23T10:28:33;92225.31;;;34.33;24.85
20628;BME280;10473;42.734;24.258;2022-07-23T10:31:12;92226.53;;;34.43;27.20
20628;BME280;10473;42.734;24.258;2022-07-23T10:33:52;92233.81;;;34.81;27.55
20628;BME280;10473;42.734;24.258;2022-07-23T10:36:31;92220.94;;;35.00;26.02
20628;BME280;10473;42.734;24.258;2022-07-23T10:39:05;92227.81;;;35.17;25.16
20628;BME280;10473;42.734;24.258;2022-07-23T10:41:37;92217.06;;;34.84;24.16
20628;BME280;10473;42.734;24.258;2022-07-23T10:44:09;92224.66;;;35.08;27.70
20628;BME280;10473;42.734;24.258;2022-07-23T10:46:53;92230.78;;;35.25;25.46
20628;BME280;10473;42.734;24.258;2022-07-23T10:49:28;92221.47;;;35.33;24.53
20628;BME280;10473;42.734;24.258;2022-07-23T10:52:17;92225.78;;;35.58;25.41
20628;BME280;10473;42.734;24.258;2022-07-23T10:54:46;92218.03;;;35.51;24.91
20628;BME280;10473;42.734;24.258;2022-07-23T10:57:16;92212.72;;;35.29;23.68
20628;BME280;10473;42.734;24.258;2022-07-23T11:00:22;92212.25;;;35.25;25.07
20628;BME280;10473;42.734;24.258;2022-07-23T11:02:51;92220.81;;;35.16;25.42
20628;BME280;10473;42.734;24.258;2022-07-23T11:05:21;92213.03;;;35.26;25.90
20628;BME280;10473;42.734;24.258;2022-07-23T11:08:12;92217.63;;;35.42;25.05
20628;BME280;10473;42.734;24.258;2022-07-23T11:10:45;92209.97;;;35.29;24.16
20628;BME280;10473;42.734;24.258;2022-07-23T11:16:27;92207.47;;;35.55;25.43
20628;BME280;10473;42.734;24.258;2022-07-23T11:19:05;92202.19;;;35.57;24.45
20628;BME280;10473;42.734;24.258;2022-07-23T11:21:57;92204.09;;;35.73;25.17
20628;BME280;10473;42.734;24.258;2022-07-23T11:24:25;92200.91;;;35.88;25.63
20628;BME280;10473;42.734;24.258;2022-07-23T11:26:58;92195.44;;;35.82;24.64
20628;BME280;10473;42.734;24.258;2022-07-23T11:29:42;92190.88;;;35.61;23.43
20628;BME280;10473;42.734;24.258;2022-07-23T11:32:30;92191.03;;;35.74;24.06
20628;BME280;10473;42.734;24.258;2022-07-23T11:34:59;92198.03;;;35.75;23.28
20628;BME280;10473;42.734;24.258;2022-07-23T11:37:31;92198.19;;;35.29;23.20
20628;BME280;10473;42.734;24.258;2022-07-23T11:40:00;92186.91;;;35.56;24.49
20628;BME280;10473;42.734;24.258;2022-07-23T11:42:28;92186.19;;;35.56;23.11
20628;BME280;10473;42.734;24.258;2022-07-23T11:44:56;92181.81;;;35.36;23.83
20628;BME280;10473;42.734;24.258;2022-07-23T11:47:26;92192.25;;;35.49;23.94
20628;BME280;10473;42.734;24.258;2022-07-23T11:49:57;92182.94;;;35.52;23.48
20628;BME280;10473;42.734;24.258;2022-07-23T11:52:26;92187.41;;;35.31;24.74
20628;BME280;10473;42.734;24.258;2022-07-23T11:54:56;92191.69;;;35.26;24.37
20628;BME280;10473;42.734;24.258;2022-07-23T11:57:25;92187.25;;;35.47;24.84
20628;BME280;10473;42.734;24.258;2022-07-23T11:59:56;92182.53;;;35.66;24.79
20628;BME280;10473;42.734;24.258;2022-07-23T12:02:24;92181.22;;;35.78;24.50
20628;BME280;10473;42.734;24.258;2022-07-23T12:04:53;92187.34;;;35.90;23.91
20628;BME280;10473;42.734;24.258;2022-07-23T12:07:28;92197.75;;;35.78;23.06
20628;BME280;10473;42.734;24.258;2022-07-23T12:09:58;92184.09;;;35.62;22.48
20628;BME280;10473;42.734;24.258;2022-07-23T12:12:26;92180.25;;;35.70;24.27
20628;BME280;10473;42.734;24.258;2022-07-23T12:14:56;92183.56;;;35.39;23.52
20628;BME280;10473;42.734;24.258;2022-07-23T12:17:28;92178.06;;;35.39;23.91
20628;BME280;10473;42.734;24.258;2022-07-23T12:19:58;92174.53;;;35.09;22.88
20628;BME280;10473;42.734;24.258;2022-07-23T12:22:34;92161.88;;;35.25;24.69
20628;BME280;10473;42.734;24.258;2022-07-23T12:25:05;92171.28;;;35.40;24.06
20628;BME280;10473;42.734;24.258;2022-07-23T12:27:34;92167.56;;;35.62;24.84
20628;BME280;10473;42.734;24.258;2022-07-23T12:30:22;92166.56;;;35.59;23.73
20628;BME280;10473;42.734;24.258;2022-07-23T12:32:52;92168.91;;;35.79;24.01
20628;BME280;10473;42.734;24.258;2022-07-23T12:35:21;92167.06;;;35.87;22.43
20628;BME280;10473;42.734;24.258;2022-07-23T12:37:51;92162.13;;;35.99;23.46
20628;BME280;10473;42.734;24.258;2022-07-23T12:40:27;92170.00;;;36.13;24.10
20628;BME280;10473;42.734;24.258;2022-07-23T12:42:57;92167.09;;;36.06;22.88
20628;BME280;10473;42.734;24.258;2022-07-23T12:45:26;92171.75;;;35.68;22.48
20628;BME280;10473;42.734;24.258;2022-07-23T12:47:59;92156.69;;;35.45;22.60
20628;BME280;10473;42.734;24.258;2022-07-23T12:50:35;92141.16;;;35.42;24.00
20628;BME280;10473;42.734;24.258;2022-07-23T12:53:08;92140.25;;;35.58;24.51
20628;BME280;10473;42.734;24.258;2022-07-23T12:55:36;92143.91;;;35.42;23.48
20628;BME280;10473;42.734;24.258;2022-07-23T12:58:06;92144.75;;;35.02;23.23
20628;BME280;10473;42.734;24.258;2022-07-23T13:00:59;92149.00;;;34.68;24.09
20628;BME280;10473;42.734;24.258;2022-07-23T13:03:33;92147.63;;;34.86;25.05
20628;BME280;10473;42.734;24.258;2022-07-23T13:06:03;92142.44;;;35.12;23.59
20628;BME280;10473;42.734;24.258;2022-07-23T13:08:33;92149.34;;;35.24;24.80
20628;BME280;10473;42.734;24.258;2022-07-23T13:11:01;92146.56;;;35.29;23.12
20628;BME280;10473;42.734;24.258;2022-07-23T13:13:31;92146.56;;;35.29;24.61